Time;durP1;ratioP1;P1;durP2;ratioP2;P2;SDS_P1;SDS_P2;PMS_P1;PMS_P2;Temp;Humidity;BMP_temperature;BMP_pressure;BME280_temperature;BME280_humidity;BME280_pressure;Samples;Min_cycle;Max_cycle;Signal;HPM_P1;HPM_P2
2022/08/02 00:00:44;;;;;;;12.13;10.53;;;;;;;20.34;79.09;98813.50;2239667;79;20924;-83
2022/08/02 00:03:45;;;;;;;12.88;10.48;;;;;;;20.24;79.44;98814.22;2239724;79;21442;-83
2022/08/02 00:06:45;;;;;;;10.55;9.48;;;;;;;20.18;80.56;98811.73;2239884;79;20889;-83
2022/08/02 00:09:46;;;;;;;11.18;10.08;;;;;;;20.21;80.45;98806.81;2239832;79;20931;-82
2022/08/02 00:12:46;;;;;;;10.25;9.35;;;;;;;20.23;81.97;98808.50;2221459;79;20980;-82
2022/08/02 00:15:46;;;;;;;10.60;9.15;;;;;;;20.44;81.34;98804.87;2208667;79;21249;-83
2022/08/02 00:18:47;;;;;;;10.90;9.78;;;;;;;20.34;81.07;98799.80;2208560;79;20890;-83
2022/08/02 00:21:47;;;;;;;11.08;9.95;;;;;;;20.35;81.44;98810.81;2208880;81;20953;-83
2022/08/02 00:24:47;;;;;;;10.82;9.90;;;;;;;20.33;81.80;98811.31;2208631;79;20952;-82
2022/08/02 00:27:48;;;;;;;10.68;9.53;;;;;;;20.53;82.58;98814.75;2208925;81;20889;-83
2022/08/02 00:30:48;;;;;;;15.65;12.60;;;;;;;20.84;82.33;98819.19;2208811;79;20901;-84
2022/08/02 00:33:49;;;;;;;15.58;10.48;;;;;;;21.19;81.88;98820.77;2208885;79;20964;-83
2022/08/02 00:36:49;;;;;;;16.70;10.85;;;;;;;21.33;80.37;98818.58;2208922;80;20893;-84
2022/08/02 00:39:50;;;;;;;16.32;14.87;;;;;;;21.47;80.08;98826.09;2208993;81;20926;-83
2022/08/02 00:42:50;;;;;;;22.17;18.10;;;;;;;21.55;79.24;98831.56;2209030;79;20933;-84
2022/08/02 00:45:50;;;;;;;19.12;17.32;;;;;;;21.36;78.40;98831.75;2209029;81;20917;-84
2022/08/02 00:48:51;;;;;;;12.60;11.30;;;;;;;21.21;79.64;98838.38;2209011;79;20894;-83
2022/08/02 00:51:51;;;;;;;11.57;10.68;;;;;;;20.96;78.99;98842.25;2209035;80;20902;-84
2022/08/02 00:54:52;;;;;;;12.82;11.53;;;;;;;20.85;79.81;98831.54;2208872;80;20964;-84
2022/08/02 00:57:52;;;;;;;14.78;11.60;;;;;;;20.93;80.51;98830.39;2208996;79;20906;-85
2022/08/02 01:00:53;;;;;;;12.30;10.20;;;;;;;20.93;80.59;98834.84;2209007;81;21292;-85
2022/08/02 01:03:53;;;;;;;12.40;11.08;;;;;;;20.88;80.22;98838.08;2209109;79;20893;-84
2022/08/02 01:06:53;;;;;;;12.10;10.72;;;;;;;20.88;81.41;98845.58;2209003;79;20909;-83
2022/08/02 01:09:54;;;;;;;16.50;14.78;;;;;;;20.98;81.22;98846.18;2209149;79;21316;-82
2022/08/02 01:12:54;;;;;;;17.65;15.35;;;;;;;21.12;80.01;98848.41;2209050;79;20949;-85
2022/08/02 01:15:54;;;;;;;22.70;20.25;;;;;;;21.13;80.71;98855.00;2209120;80;20929;-83
2022/08/02 01:18:55;;;;;;;16.97;15.40;;;;;;;21.09;80.13;98859.99;2208981;79;20917;-83
2022/08/02 01:21:55;;;;;;;18.60;16.80;;;;;;;20.94;79.95;98863.98;2208920;79;20932;-83
2022/08/02 01:24:58;;;;;;;14.15;12.73;;;;;;;20.80;80.02;98863.48;2208566;80;21016;-83
2022/08/02 01:27:59;;;;;;;14.80;13.35;;;;;;;20.66;81.01;98863.88;2208783;79;20909;-83
2022/08/02 01:30:59;;;;;;;18.17;16.48;;;;;;;20.58;80.99;98859.70;2208355;79;20902;-83
2022/08/02 01:34:00;;;;;;;11.93;10.75;;;;;;;20.57;81.31;98862.81;2208433;79;20910;-80
2022/08/02 01:37:00;;;;;;;10.48;9.38;;;;;;;20.49;81.37;98858.17;2208342;80;20933;-83
2022/08/02 01:40:01;;;;;;;9.50;8.68;;;;;;;20.09;82.47;98860.14;2164670;82;20976;-86
2022/08/02 01:43:01;;;;;;;9.65;8.85;;;;;;;19.90;83.17;98856.61;2157739;82;20918;-81
2022/08/02 01:46:01;;;;;;;10.58;9.58;;;;;;;19.57;83.81;98854.80;2157245;83;20946;-81
2022/08/02 01:49:02;;;;;;;9.83;9.00;;;;;;;19.31;85.16;98853.61;2157721;83;21262;-83
2022/08/02 01:52:20;;;;;;;10.38;9.48;;;;;;;19.09;86.02;98853.22;2157776;83;20954;-83
2022/08/02 01:55:21;;;;;;;10.98;9.93;;;;;;;19.13;87.95;98855.34;2157843;83;20973;-82
2022/08/02 01:58:21;;;;;;;10.13;9.33;;;;;;;19.04;88.53;98856.84;2157632;83;21277;-81
2022/08/02 02:01:22;;;;;;;11.03;10.03;;;;;;;19.24;88.63;98849.81;2157732;83;20898;-83
2022/08/02 02:04:22;;;;;;;11.70;10.55;;;;;;;19.11;88.36;98844.38;2157693;83;20953;-83
2022/08/02 02:07:22;;;;;;;11.30;10.18;;;;;;;18.98;88.79;98845.94;2157805;83;20922;-83
2022/08/02 02:10:23;;;;;;;10.25;9.30;;;;;;;18.91;89.15;98840.38;2157727;83;20922;-82
2022/08/02 02:13:23;;;;;;;11.08;9.20;;;;;;;18.85;90.95;98833.89;2157755;83;20992;-83
2022/08/02 02:16:26;;;;;;;11.00;9.88;;;;;;;18.75;89.92;98842.92;2157855;83;20957;-83
2022/08/02 02:19:24;;;;;;;10.98;9.93;;;;;;;18.62;90.79;98836.15;2157439;83;20917;-83
2022/08/02 02:22:24;;;;;;;11.30;10.25;;;;;;;18.51;91.12;98835.02;2157506;83;20969;-83
2022/08/02 02:25:25;;;;;;;12.53;11.08;;;;;;;18.44;91.68;98836.04;2157374;83;21008;-82
2022/08/02 02:28:32;;;;;;;12.58;11.38;;;;;;;18.34;92.38;98841.08;2157017;83;20973;-81
2022/08/02 02:31:32;;;;;;;12.88;11.65;;;;;;;18.27;92.87;98842.97;2157451;83;20965;-83
2022/08/02 02:34:32;;;;;;;13.30;11.43;;;;;;;18.22;93.58;98838.23;2157351;83;20929;-85
2022/08/02 02:37:32;;;;;;;12.50;11.40;;;;;;;18.19;93.39;98836.06;2157602;83;20918;-83
2022/08/02 02:40:33;;;;;;;11.68;10.55;;;;;;;18.17;94.05;98841.38;2157429;83;20982;-82
2022/08/02 02:43:33;;;;;;;12.50;11.18;;;;;;;18.12;94.36;98840.14;2157661;83;20925;-83
2022/08/02 02:46:34;;;;;;;12.15;11.15;;;;;;;18.12;94.62;98849.84;2157465;83;20929;-82
2022/08/02 02:49:34;;;;;;;11.48;10.38;;;;;;;18.10;95.11;98840.62;2157433;83;21305;-83
2022/08/02 02:52:34;;;;;;;12.43;11.33;;;;;;;18.08;95.63;98846.38;2157492;83;20997;-82
2022/08/02 02:55:35;;;;;;;13.88;12.58;;;;;;;18.07;96.05;98846.41;2157449;83;20982;-82
2022/08/02 02:58:35;;;;;;;15.60;13.50;;;;;;;18.07;96.29;98847.28;2157905;83;20933;-83
2022/08/02 03:01:36;;;;;;;12.75;11.63;;;;;;;18.06;96.96;98840.70;2157957;83;20994;-83
2022/08/02 03:04:36;;;;;;;13.08;11.97;;;;;;;18.05;97.73;98842.92;2157823;83;21061;-84
2022/08/02 03:07:36;;;;;;;14.55;13.20;;;;;;;18.02;97.76;98844.30;2157839;82;20937;-84
2022/08/02 03:10:37;;;;;;;16.07;14.40;;;;;;;18.02;97.12;98847.81;2157873;83;20920;-84
2022/08/02 03:13:37;;;;;;;15.65;14.07;;;;;;;18.07;97.24;98846.41;2162133;81;21016;-83
2022/08/02 03:16:38;;;;;;;15.98;14.18;;;;;;;18.09;97.75;98856.49;2164663;82;20973;-81
2022/08/02 03:19:38;;;;;;;17.42;15.70;;;;;;;18.06;98.04;98852.59;2221841;80;20931;-81
2022/08/02 03:22:39;;;;;;;18.05;15.90;;;;;;;18.02;98.21;98842.53;2221582;80;20920;-83
2022/08/02 03:25:39;;;;;;;18.15;16.20;;;;;;;18.00;98.46;98862.81;2221542;79;21419;-83
2022/08/02 03:28:40;;;;;;;17.35;15.78;;;;;;;17.99;99.10;98857.56;2222136;79;20907;-86
2022/08/02 03:31:40;;;;;;;18.87;17.02;;;;;;;17.98;99.11;98862.42;2221752;79;20916;-84
2022/08/02 03:34:45;;;;;;;18.55;16.65;;;;;;;17.97;99.67;98862.00;2221681;79;20889;-83
2022/08/02 03:37:43;;;;;;;17.37;15.70;;;;;;;17.95;99.94;98856.74;2199461;80;20904;-84
2022/08/02 03:40:44;;;;;;;21.25;16.97;;;;;;;17.95;99.67;98864.66;2221231;79;21324;-84
2022/08/02 03:43:45;;;;;;;24.92;17.10;;;;;;;17.97;99.76;98861.55;2175080;82;20931;-84
2022/08/02 03:46:46;;;;;;;18.73;16.80;;;;;;;17.99;100.00;98864.16;2174182;81;20919;-81
2022/08/02 03:49:46;;;;;;;18.75;16.70;;;;;;;18.00;99.42;98863.27;2174285;81;21267;-84
2022/08/02 03:52:46;;;;;;;19.48;17.42;;;;;;;18.02;99.38;98867.63;2174595;82;20947;-83
2022/08/02 03:55:47;;;;;;;18.57;16.62;;;;;;;18.04;99.74;98862.31;2174448;81;21379;-84
2022/08/02 03:58:47;;;;;;;24.40;18.55;;;;;;;18.02;99.70;98864.11;2174615;81;20916;-84
2022/08/02 04:01:47;;;;;;;18.40;16.55;;;;;;;18.01;99.70;98869.84;2174178;81;20920;-84
2022/08/02 04:04:47;;;;;;;19.92;17.73;;;;;;;18.00;100.00;98876.02;2221330;79;20933;-84
2022/08/02 04:07:49;;;;;;;21.35;19.25;;;;;;;18.02;100.00;98883.91;2221270;79;20920;-85
2022/08/02 04:14:07;;;;;;;21.42;19.02;;;;;;;18.04;99.44;98880.34;2210691;79;20981;-83
2022/08/02 04:17:07;;;;;;;21.12;18.85;;;;;;;18.07;99.94;98888.67;2207740;79;20917;-83
2022/08/02 04:20:08;;;;;;;20.35;18.35;;;;;;;18.10;99.43;98888.16;2206687;79;20913;-83
2022/08/02 04:23:08;;;;;;;21.48;19.17;;;;;;;18.16;99.09;98895.11;2206732;79;20969;-83
2022/08/02 04:26:09;;;;;;;23.18;17.67;;;;;;;18.23;99.55;98896.78;2206182;80;20951;-82
2022/08/02 04:29:09;;;;;;;22.93;19.85;;;;;;;18.27;99.02;98893.17;2206133;80;21345;-84
2022/08/02 04:32:09;;;;;;;22.05;19.75;;;;;;;18.30;99.79;98898.41;2206594;79;20942;-84
2022/08/02 04:35:10;;;;;;;22.32;19.87;;;;;;;18.29;99.40;98901.95;2207425;79;20898;-84
2022/08/02 04:38:10;;;;;;;21.05;18.73;;;;;;;18.32;98.92;98899.25;2207047;79;21305;-84
2022/08/02 04:41:11;;;;;;;20.20;18.07;;;;;;;18.44;99.05;98906.08;2207307;79;20969;-84
2022/08/02 04:44:11;;;;;;;20.08;18.07;;;;;;;18.51;98.30;98906.83;2206768;79;20953;-84
2022/08/02 04:47:12;;;;;;;23.07;18.80;;;;;;;18.57;97.95;98908.03;2207339;79;20881;-84
2022/08/02 04:50:12;;;;;;;20.97;18.50;;;;;;;18.58;97.78;98909.33;2207612;79;21324;-83
2022/08/02 04:53:12;;;;;;;20.68;18.60;;;;;;;18.58;97.78;98911.10;2207055;79;20977;-83
2022/08/02 04:56:13;;;;;;;20.88;18.85;;;;;;;18.61;97.57;98918.97;2206860;81;20979;-84
2022/08/02 04:59:13;;;;;;;18.85;17.00;;;;;;;18.63;97.74;98922.04;2206970;80;21308;-85
2022/08/02 05:02:14;;;;;;;22.02;18.10;;;;;;;18.69;97.42;98925.02;2206186;79;20956;-84
2022/08/02 05:05:14;;;;;;;19.70;17.75;;;;;;;18.77;97.33;98925.28;2206143;79;20937;-84
2022/08/02 05:08:14;;;;;;;20.25;18.32;;;;;;;18.76;97.07;98916.06;2205660;80;21632;-83
2022/08/02 05:11:15;;;;;;;23.42;17.90;;;;;;;18.85;96.99;98926.45;2205874;79;20965;-83
2022/08/02 05:14:15;;;;;;;19.07;17.30;;;;;;;18.95;96.47;98920.52;2205736;79;20953;-83
2022/08/02 05:17:16;;;;;;;17.90;16.20;;;;;;;18.98;96.07;98923.98;2206139;80;20940;-80
2022/08/02 05:20:16;;;;;;;21.15;19.20;;;;;;;19.05;95.88;98929.56;2207273;80;21325;-83
2022/08/02 05:23:16;;;;;;;19.30;17.30;;;;;;;19.02;95.51;98930.95;2205864;79;20932;-83
2022/08/02 05:26:17;;;;;;;18.15;16.45;;;;;;;19.03;95.55;98930.04;2205358;80;21025;-76
2022/08/02 05:29:17;;;;;;;19.07;15.65;;;;;;;19.13;95.43;98932.53;2205597;79;20874;-82
2022/08/02 05:32:18;;;;;;;19.65;17.37;;;;;;;19.27;94.96;98939.72;2205312;79;20877;-83
2022/08/02 05:35:18;;;;;;;18.62;16.82;;;;;;;19.41;94.24;98941.61;2205044;79;20902;-83
2022/08/02 05:38:18;;;;;;;18.37;16.55;;;;;;;19.51;93.84;98944.47;2205572;80;20909;-83
2022/08/02 05:41:19;;;;;;;19.65;17.60;;;;;;;19.65;93.50;98942.41;2205417;79;20918;-82
2022/08/02 05:44:19;;;;;;;19.45;17.45;;;;;;;19.77;92.76;98945.68;2205647;79;21603;-84
2022/08/02 05:47:21;;;;;;;20.20;16.93;;;;;;;19.85;92.17;98956.96;2204864;79;20906;-84
2022/08/02 05:50:21;;;;;;;20.45;17.95;;;;;;;19.76;91.71;98953.20;2205473;81;21016;-81
2022/08/02 05:53:21;;;;;;;19.07;17.10;;;;;;;19.61;92.05;98957.95;2205899;81;20949;-83
2022/08/02 05:56:22;;;;;;;21.07;19.07;;;;;;;19.50;92.28;98957.74;2205635;79;21372;-84
2022/08/02 05:59:22;;;;;;;20.92;18.82;;;;;;;19.43;92.50;98963.63;2205229;79;20905;-83
2022/08/02 06:02:22;;;;;;;19.45;17.55;;;;;;;19.45;92.36;98967.11;2206307;81;20909;-84
2022/08/02 06:05:23;;;;;;;19.50;17.62;;;;;;;19.46;92.14;98981.22;2206135;79;20980;-83
2022/08/02 06:11:22;;;;;;;20.00;18.05;;;;;;;19.42;92.34;98976.44;2260058;79;23533;-81
2022/08/02 06:14:23;;;;;;;26.23;23.07;;;;;;;19.36;92.50;98984.06;2227496;80;20984;-85
2022/08/02 06:17:23;;;;;;;27.82;24.55;;;;;;;19.35;92.39;98982.77;2226666;80;21315;-83
2022/08/02 06:20:24;;;;;;;26.57;23.85;;;;;;;19.38;92.39;98986.22;2226223;80;20983;-85
2022/08/02 06:23:24;;;;;;;24.43;21.80;;;;;;;19.46;92.17;98991.80;2226064;80;21034;-85
2022/08/02 06:26:25;;;;;;;26.62;23.90;;;;;;;19.47;91.80;98993.09;2225641;80;21015;-84
2022/08/02 06:29:25;;;;;;;26.05;21.95;;;;;;;19.51;91.65;99002.72;2226092;80;21003;-85
2022/08/02 06:32:25;;;;;;;23.45;20.95;;;;;;;19.55;91.57;98999.12;2226657;80;20924;-86
2022/08/02 06:35:26;;;;;;;23.25;20.72;;;;;;;19.60;91.70;98999.90;2226732;80;20968;-86
2022/08/02 06:38:26;;;;;;;25.62;20.57;;;;;;;19.79;91.59;98999.48;2227754;80;20998;-85
2022/08/02 06:41:26;;;;;;;29.30;23.55;;;;;;;19.95;90.96;99002.23;2228051;80;21011;-84
2022/08/02 06:44:27;;;;;;;35.65;26.25;;;;;;;20.12;90.45;99008.45;2227967;80;21335;-83
2022/08/02 06:47:27;;;;;;;36.33;26.65;;;;;;;20.18;89.56;99007.85;2226996;80;20964;-85
2022/08/02 06:50:28;;;;;;;36.42;28.05;;;;;;;20.19;89.40;99014.89;2228119;80;21035;-83
2022/08/02 06:53:28;;;;;;;34.20;28.60;;;;;;;20.18;89.29;99018.45;2228319;80;20999;-84
2022/08/02 06:56:28;;;;;;;39.83;30.80;;;;;;;20.17;89.09;99023.34;2228506;80;21030;-86
2022/08/02 06:59:29;;;;;;;37.30;31.20;;;;;;;20.23;88.89;99025.84;2227718;80;21007;-85
2022/08/02 07:02:29;;;;;;;33.28;28.95;;;;;;;20.18;88.67;99021.56;2227213;80;20995;-85
2022/08/02 07:05:30;;;;;;;23.92;21.48;;;;;;;20.23;89.05;99023.19;2227020;80;21439;-82
2022/08/02 07:08:34;;;;;;;24.37;19.37;;;;;;;20.32;88.52;99024.28;2225891;80;20955;-86
2022/08/02 07:11:33;;;;;;;20.57;18.52;;;;;;;20.32;88.12;99020.31;2220085;80;21454;-86
2022/08/02 07:14:34;;;;;;;20.97;18.98;;;;;;;20.37;88.30;99025.50;2219536;80;21012;-85
2022/08/02 07:17:34;;;;;;;19.55;17.45;;;;;;;20.44;87.83;99019.17;2220940;80;20952;-85
2022/08/02 07:20:35;;;;;;;21.07;17.77;;;;;;;20.47;87.94;99022.20;2221463;80;20912;-84
2022/08/02 07:23:35;;;;;;;17.52;15.55;;;;;;;20.51;87.49;99019.43;2221012;80;21284;-85
2022/08/02 07:26:35;;;;;;;20.57;18.42;;;;;;;20.54;87.34;99017.16;2220634;80;20904;-81
2022/08/02 07:29:36;;;;;;;18.85;15.78;;;;;;;20.56;87.07;99020.64;2220510;80;21055;-84
2022/08/02 07:32:36;;;;;;;15.15;13.62;;;;;;;20.48;87.24;99022.61;2220598;80;21007;-83
2022/08/02 07:35:38;;;;;;;16.85;14.83;;;;;;;20.43;87.41;99027.16;2189642;80;21007;-83
2022/08/02 07:38:39;;;;;;;17.90;16.12;;;;;;;20.34;87.28;99029.55;2220842;80;20920;-85
2022/08/02 07:41:39;;;;;;;17.50;15.88;;;;;;;20.28;87.33;99031.90;2220467;80;21628;-84
2022/08/02 07:44:40;;;;;;;16.57;15.00;;;;;;;20.26;87.36;99032.39;2220307;80;20988;-84
2022/08/02 07:47:40;;;;;;;17.75;16.23;;;;;;;20.39;86.61;99034.31;2220443;80;20959;-85
2022/08/02 07:50:40;;;;;;;17.65;16.05;;;;;;;20.47;86.18;99035.00;2220492;80;21018;-84
2022/08/02 07:53:41;;;;;;;19.10;17.30;;;;;;;20.53;86.13;99040.60;2219414;80;20983;-85
2022/08/02 07:56:41;;;;;;;19.50;17.73;;;;;;;20.50;85.99;99045.98;2219189;80;20897;-85
2022/08/02 07:59:42;;;;;;;19.92;17.98;;;;;;;20.40;86.40;99041.81;2219570;80;20979;-85
2022/08/02 08:02:42;;;;;;;22.73;20.37;;;;;;;20.35;86.59;99045.42;2219503;80;20972;-84
2022/08/02 08:05:42;;;;;;;21.23;19.12;;;;;;;20.42;86.59;99047.95;2219348;80;20901;-85
2022/08/02 08:08:43;;;;;;;22.95;19.07;;;;;;;20.44;86.60;99040.83;2220819;80;21019;-84
2022/08/02 08:11:43;;;;;;;20.12;18.00;;;;;;;20.35;87.05;99044.09;2208395;80;21039;-84
2022/08/02 08:14:44;;;;;;;21.33;19.40;;;;;;;20.30;87.20;99047.31;2209512;81;21277;-83
2022/08/02 08:17:44;;;;;;;22.07;20.12;;;;;;;20.37;87.31;99052.01;2209013;81;20936;-83
2022/08/02 08:20:45;;;;;;;24.95;19.37;;;;;;;20.33;87.18;99051.22;2208184;81;20971;-82
2022/08/02 08:23:45;;;;;;;25.50;23.00;;;;;;;20.33;87.56;99055.64;2208060;81;21011;-83
2022/08/02 08:26:45;;;;;;;27.80;24.07;;;;;;;20.31;87.85;99056.14;2208413;81;20921;-83
2022/08/02 08:29:46;;;;;;;25.25;22.40;;;;;;;20.25;87.82;99059.80;2210020;81;21358;-83
2022/08/02 08:32:47;;;;;;;24.10;21.70;;;;;;;20.27;87.94;99060.64;2208925;81;20960;-84
2022/08/02 08:35:47;;;;;;;28.77;25.37;;;;;;;20.43;88.08;99062.50;2209071;81;20948;-86
2022/08/02 08:38:48;;;;;;;25.25;22.60;;;;;;;20.56;87.27;99061.74;2209072;81;20980;-85
2022/08/02 08:41:47;;;;;;;25.57;22.35;;;;;;;20.70;87.09;99065.37;2208767;81;20972;-85
2022/08/02 08:44:48;;;;;;;25.00;22.05;;;;;;;20.75;86.51;99063.02;2209361;81;20920;-85
2022/08/02 08:47:52;;;;;;;24.80;21.85;;;;;;;20.82;86.37;99060.66;2209472;81;20973;-85
2022/08/02 08:50:51;;;;;;;29.20;23.50;;;;;;;20.90;85.79;99067.95;2209045;81;21282;-86
2022/08/02 08:53:52;;;;;;;24.80;22.17;;;;;;;20.86;85.63;99067.62;2208649;81;20921;-83
2022/08/02 08:56:52;;;;;;;31.55;24.52;;;;;;;20.84;85.89;99066.79;2208841;81;20979;-84
2022/08/02 08:59:53;;;;;;;26.45;22.70;;;;;;;20.86;85.59;99074.25;2209067;81;20988;-85
2022/08/02 09:02:53;;;;;;;23.70;21.17;;;;;;;20.85;85.83;99073.84;2209335;81;20933;-82
2022/08/02 09:05:53;;;;;;;23.05;19.73;;;;;;;21.07;85.46;99080.77;2208125;81;21386;-83
2022/08/02 09:08:54;;;;;;;19.95;17.90;;;;;;;21.35;84.10;99075.61;2207697;81;21031;-84
2022/08/02 09:11:54;;;;;;;22.55;19.95;;;;;;;21.55;83.28;99078.57;2208031;80;21004;-85
2022/08/02 09:14:55;;;;;;;22.65;19.80;;;;;;;21.60;82.65;99072.67;2209045;81;21633;-83
2022/08/02 09:17:55;;;;;;;19.50;17.45;;;;;;;21.65;82.19;99080.97;2209246;81;20988;-85
2022/08/02 09:20:58;;;;;;;17.57;15.53;;;;;;;21.68;82.57;99082.23;2209147;81;20988;-83
2022/08/02 09:23:59;;;;;;;21.97;19.20;;;;;;;21.71;82.24;99076.83;2209433;81;21003;-86
2022/08/02 09:26:59;;;;;;;17.92;16.30;;;;;;;21.82;81.02;99084.03;2208880;81;20976;-84
2022/08/02 09:29:59;;;;;;;19.57;17.17;;;;;;;22.05;79.46;99084.69;2209505;81;20955;-84
2022/08/02 09:33:02;;;;;;;18.67;16.35;;;;;;;22.22;78.47;99081.05;2187216;81;21390;-85
2022/08/02 09:36:02;;;;;;;20.45;16.42;;;;;;;22.16;78.69;99078.13;2208037;81;20964;-85
2022/08/02 09:39:03;;;;;;;17.05;14.93;;;;;;;22.21;79.07;99081.97;2209174;81;20972;-84
2022/08/02 09:42:03;;;;;;;16.55;14.93;;;;;;;22.23;78.83;99084.12;2208305;81;21388;-83
2022/08/02 09:45:04;;;;;;;14.78;13.13;;;;;;;22.23;79.08;99084.98;2208268;81;20968;-84
2022/08/02 09:48:04;;;;;;;14.98;13.58;;;;;;;22.35;79.24;99090.38;2208327;81;20929;-85
2022/08/02 09:51:04;;;;;;;14.47;13.10;;;;;;;22.41;78.13;99089.31;2208378;81;21399;-83
2022/08/02 09:54:05;;;;;;;13.68;12.47;;;;;;;22.77;77.19;99090.80;2208641;81;20981;-82
2022/08/02 09:57:06;;;;;;;14.98;12.82;;;;;;;23.10;75.63;99089.27;2209157;81;20944;-82
2022/08/02 10:00:12;;;;;;;15.32;13.60;;;;;;;23.30;74.35;99092.55;2208347;81;21300;-83
2022/08/02 10:03:08;;;;;;;14.35;12.85;;;;;;;23.49;73.30;99085.66;2187320;81;20960;-82
2022/08/02 10:06:08;;;;;;;17.55;12.98;;;;;;;23.64;72.92;99085.59;2208664;81;21416;-82
2022/08/02 10:09:09;;;;;;;15.48;12.65;;;;;;;23.72;71.85;99081.71;2209472;81;21039;-84
2022/08/02 10:12:09;;;;;;;12.20;11.05;;;;;;;23.64;71.98;99078.47;2218580;80;21007;-84
2022/08/02 10:15:09;;;;;;;14.45;12.90;;;;;;;23.56;72.40;99076.55;2219611;80;21394;-84
2022/08/02 10:18:10;;;;;;;14.93;13.43;;;;;;;23.66;71.56;99075.28;2219764;80;20951;-85
2022/08/02 10:21:10;;;;;;;13.80;12.40;;;;;;;23.63;71.64;99075.86;2219438;80;20940;-83
2022/08/02 10:24:11;;;;;;;15.03;13.55;;;;;;;23.68;71.20;99076.55;2219462;80;20912;-83
2022/08/02 10:27:11;;;;;;;16.27;13.90;;;;;;;23.54;70.34;99074.84;2218732;80;21020;-81
2022/08/02 10:30:11;;;;;;;18.95;13.78;;;;;;;23.20;71.58;99075.56;2219260;80;21619;-84
2022/08/02 10:33:12;;;;;;;15.83;12.88;;;;;;;23.07;72.23;99074.72;2219691;80;21004;-83
2022/08/02 10:36:12;;;;;;;16.00;13.55;;;;;;;23.06;72.54;99076.52;2219565;80;20971;-84
2022/08/02 10:39:13;;;;;;;14.43;13.03;;;;;;;23.13;72.86;99079.37;2218741;80;21878;-79
2022/08/02 10:42:13;;;;;;;13.62;12.28;;;;;;;23.02;71.72;99082.88;2219109;80;21007;-84
2022/08/02 10:45:14;;;;;;;12.98;11.33;;;;;;;23.06;71.74;99079.18;2219237;80;20967;-82
2022/08/02 10:48:14;;;;;;;12.58;11.45;;;;;;;23.24;71.58;99080.32;2219340;80;20988;-83
2022/08/02 10:51:14;;;;;;;12.20;10.75;;;;;;;23.30;71.83;99082.77;2219566;80;20992;-86
2022/08/02 10:54:15;;;;;;;11.30;10.18;;;;;;;23.14;71.73;99088.23;2220341;80;20932;-85
2022/08/02 10:57:15;;;;;;;11.35;10.08;;;;;;;23.05;72.20;99088.09;2220266;80;20936;-85
2022/08/02 11:00:16;;;;;;;11.40;10.28;;;;;;;23.25;71.98;99082.06;2219589;80;20967;-86
2022/08/02 11:03:16;;;;;;;12.33;10.10;;;;;;;23.70;70.41;99075.58;2220656;80;21273;-85
2022/08/02 11:06:16;;;;;;;10.00;9.20;;;;;;;24.11;68.90;99073.98;2220430;80;20997;-85
2022/08/02 11:09:17;;;;;;;9.20;8.40;;;;;;;24.09;69.32;99073.16;2220665;80;20967;-84
2022/08/02 11:12:17;;;;;;;10.00;8.25;;;;;;;24.34;68.95;99076.26;2211364;80;21008;-85
2022/08/02 11:15:18;;;;;;;8.93;8.23;;;;;;;24.51;68.40;99076.44;2210058;80;21272;-85
2022/08/02 11:18:18;;;;;;;9.48;8.45;;;;;;;24.64;64.95;99074.13;2210914;80;21004;-85
2022/08/02 11:21:18;;;;;;;8.60;7.67;;;;;;;24.42;65.07;99071.48;2210646;80;20972;-85
2022/08/02 11:24:19;;;;;;;8.45;7.65;;;;;;;24.25;65.78;99073.43;2210980;81;20963;-86
2022/08/02 11:27:19;;;;;;;12.85;8.60;;;;;;;23.80;67.16;99082.76;2210924;80;20916;-86
2022/08/02 11:30:20;;;;;;;10.95;9.83;;;;;;;23.22;68.78;99087.50;2211400;80;20992;-84
2022/08/02 11:33:20;;;;;;;11.53;9.50;;;;;;;22.84;70.00;99081.71;2210489;81;20969;-85
2022/08/02 11:36:21;;;;;;;10.48;9.58;;;;;;;22.73;71.21;99085.63;2210334;81;20908;-85
2022/08/02 11:39:21;;;;;;;11.73;10.63;;;;;;;22.82;72.09;99087.55;2210353;81;21332;-85
2022/08/02 11:42:21;;;;;;;12.03;10.70;;;;;;;22.91;71.27;99088.16;2208800;81;21007;-85
2022/08/02 11:45:22;;;;;;;10.78;9.78;;;;;;;22.91;71.20;99081.50;2209522;81;20936;-85
2022/08/02 11:48:22;;;;;;;9.88;9.00;;;;;;;23.53;69.62;99090.42;2210344;80;21430;-85
2022/08/02 11:51:22;;;;;;;11.15;8.80;;;;;;;23.87;67.93;99089.59;2209841;80;21035;-85
2022/08/02 11:54:23;;;;;;;11.00;10.00;;;;;;;23.92;68.15;99085.42;2209512;80;21271;-86
2022/08/02 11:57:23;;;;;;;10.95;9.80;;;;;;;23.83;67.52;99086.64;2209415;81;21296;-85
2022/08/02 12:00:24;;;;;;;10.80;9.55;;;;;;;23.59;67.58;99084.89;2210440;80;20975;-85
2022/08/02 12:03:24;;;;;;;11.03;9.73;;;;;;;23.54;68.49;99089.48;2210155;80;20984;-83
2022/08/02 12:06:25;;;;;;;9.95;8.35;;;;;;;23.88;67.34;99084.66;2210454;80;20921;-85
2022/08/02 12:09:25;;;;;;;8.58;7.78;;;;;;;24.24;66.28;99079.69;2210641;81;20972;-84
2022/08/02 12:12:25;;;;;;;9.08;8.25;;;;;;;24.54;64.96;99077.65;2209203;80;20972;-83
2022/08/02 12:15:26;;;;;;;10.45;9.33;;;;;;;24.61;65.13;99084.47;2209796;80;20976;-83
2022/08/02 12:21:45;;;;;;;9.40;8.33;;;;;;;24.42;64.52;99073.69;2208927;80;20948;-84
2022/08/02 12:24:45;;;;;;;10.18;9.43;;;;;;;24.43;64.76;99071.42;2209472;81;20964;-84
2022/08/02 12:27:46;;;;;;;10.80;9.90;;;;;;;24.44;64.41;99070.95;2209118;80;20984;-83
2022/08/02 12:30:46;;;;;;;10.38;8.70;;;;;;;24.48;63.45;99071.23;2208300;80;20956;-83
2022/08/02 12:33:47;;;;;;;17.55;9.93;;;;;;;24.40;63.16;99072.00;2207974;80;20936;-82
2022/08/02 12:36:47;;;;;;;12.43;8.58;;;;;;;24.49;62.73;99069.43;2207315;80;21000;-84
2022/08/02 12:39:49;;;;;;;10.00;9.10;;;;;;;24.98;62.34;99071.80;2207447;81;20932;-83
2022/08/02 12:42:48;;;;;;;10.82;9.23;;;;;;;25.15;60.75;99072.44;2207580;80;20984;-82
2022/08/02 12:45:48;;;;;;;13.48;12.37;;;;;;;25.46;59.00;99080.44;2207925;80;20940;-82
2022/08/02 12:48:49;;;;;;;14.43;13.25;;;;;;;25.53;58.11;99072.53;2207668;81;20917;-86
2022/08/02 12:51:49;;;;;;;15.72;14.20;;;;;;;25.55;58.33;99073.34;2208085;81;20940;-85
2022/08/02 12:54:50;;;;;;;19.25;17.52;;;;;;;25.75;58.49;99076.47;2207703;81;20937;-83
2022/08/02 12:57:50;;;;;;;20.17;18.27;;;;;;;25.87;57.79;99079.44;2207738;81;21012;-83
2022/08/02 13:00:50;;;;;;;18.10;16.60;;;;;;;25.67;57.84;99076.35;2208362;81;20967;-84
2022/08/02 13:03:51;;;;;;;17.25;15.65;;;;;;;25.43;59.54;99074.76;2208631;81;20940;-80
2022/08/02 13:06:51;;;;;;;18.23;16.75;;;;;;;25.15;59.61;99082.26;2208703;81;21281;-83
2022/08/02 13:09:52;;;;;;;19.57;17.87;;;;;;;24.77;61.51;99085.56;2208065;81;20928;-84
2022/08/02 13:12:52;;;;;;;20.12;17.87;;;;;;;24.67;62.33;99077.54;2207081;80;21052;-83
2022/08/02 13:15:52;;;;;;;21.00;19.10;;;;;;;24.92;62.41;99084.52;2207559;81;20948;-84
2022/08/02 13:18:53;;;;;;;19.55;17.95;;;;;;;24.99;60.67;99083.36;2206700;81;20964;-83
2022/08/02 13:21:53;;;;;;;19.17;17.65;;;;;;;24.86;62.37;99075.44;2206750;81;20941;-83
2022/08/02 13:24:54;;;;;;;19.87;17.40;;;;;;;24.62;62.37;99086.20;2207822;81;20904;-84
2022/08/02 13:27:54;;;;;;;19.70;16.95;;;;;;;24.22;63.53;99092.22;2208356;81;21371;-84
2022/08/02 13:30:54;;;;;;;19.70;18.10;;;;;;;24.20;64.87;99080.74;2207898;81;20957;-84
2022/08/02 13:33:55;;;;;;;18.73;17.12;;;;;;;24.28;63.97;99085.38;2208632;81;20901;-86
2022/08/02 13:36:55;;;;;;;18.12;16.52;;;;;;;24.18;64.43;99084.41;2208851;81;20980;-81
2022/08/02 13:39:56;;;;;;;19.37;17.77;;;;;;;24.20;64.80;99087.41;2209061;81;20940;-84
2022/08/02 13:42:56;;;;;;;20.65;18.95;;;;;;;24.32;64.89;99086.13;2209923;81;21077;-83
2022/08/02 13:45:56;;;;;;;20.20;18.50;;;;;;;24.38;64.15;99080.54;2210453;81;20912;-84
2022/08/02 13:48:58;;;;;;;20.62;18.70;;;;;;;24.39;63.75;99076.47;2210348;81;21992;-84
2022/08/02 13:51:57;;;;;;;19.67;17.90;;;;;;;24.38;63.66;99081.88;2210065;81;21035;-84
2022/08/02 13:54:58;;;;;;;19.02;17.27;;;;;;;24.78;63.18;99075.29;2209584;81;20936;-82
2022/08/02 13:57:58;;;;;;;18.62;17.23;;;;;;;25.09;60.74;99074.88;2209719;81;20956;-85
2022/08/02 14:00:58;;;;;;;18.32;16.75;;;;;;;25.04;61.76;99073.34;2209722;81;20908;-85